Terminal Aerodrome Forecast
Issued by NWS Nashville, TN

Home | Current Version | Previous Version | Text Only | Print | Product List | Glossary On
Versions: 1 2 3 4 5 6 7 8 9 10 11 12 13
000
FTUS44 KOHX 050500
TAFBNA
TAF
KBNA 050526Z 0506/0606 19003KT P6SM SCT250
     FM051500 19008G16KT P6SM SCT250
     FM052300 18006KT P6SM SCT250=

USA.gov is the U.S. government's official web portal to all federal, state and local government web resources and services.